sensor_id;sensor_type;location;lat;lon;timestamp;temperature;humidity
41344;DHT22;27089;50.022;7.604;2022-07-18T00:02:19;13.90;99.90
41344;DHT22;27089;50.022;7.604;2022-07-18T00:04:47;14.00;99.90
41344;DHT22;27089;50.022;7.604;2022-07-18T00:07:14;14.00;99.90
41344;DHT22;27089;50.022;7.604;2022-07-18T00:09:42;14.00;99.90
41344;DHT22;27089;50.022;7.604;2022-07-18T00:12:10;14.10;99.90
41344;DHT22;27089;50.022;7.604;2022-07-18T00:14:38;14.10;99.90
41344;DHT22;27089;50.022;7.604;2022-07-18T00:17:05;14.30;99.90
41344;DHT22;27089;50.022;7.604;2022-07-18T00:19:33;14.30;99.90
41344;DHT22;27089;50.022;7.604;2022-07-18T00:22:02;14.30;99.90
41344;DHT22;27089;50.022;7.604;2022-07-18T00:24:29;14.10;99.90
41344;DHT22;27089;50.022;7.604;2022-07-18T00:26:57;14.10;99.90
41344;DHT22;27089;50.022;7.604;2022-07-18T00:29:24;14.10;99.90
41344;DHT22;27089;50.022;7.604;2022-07-18T00:31:51;14.10;99.90
41344;DHT22;27089;50.022;7.604;2022-07-18T00:34:19;14.10;99.90
41344;DHT22;27089;50.022;7.604;2022-07-18T00:36:46;14.10;99.90
41344;DHT22;27089;50.022;7.604;2022-07-18T00:39:14;14.10;99.90
41344;DHT22;27089;50.022;7.604;2022-07-18T00:41:45;14.00;99.90
41344;DHT22;27089;50.022;7.604;2022-07-18T00:44:16;13.90;99.90
41344;DHT22;27089;50.022;7.604;2022-07-18T00:46:43;13.70;99.90
41344;DHT22;27089;50.022;7.604;2022-07-18T00:49:10;13.60;99.90
41344;DHT22;27089;50.022;7.604;2022-07-18T00:51:37;13.50;99.90
41344;DHT22;27089;50.022;7.604;2022-07-18T00:54:04;13.60;99.90
41344;DHT22;27089;50.022;7.604;2022-07-18T00:56:33;13.60;99.90
41344;DHT22;27089;50.022;7.604;2022-07-18T00:59:00;13.70;99.90
41344;DHT22;27089;50.022;7.604;2022-07-18T01:01:27;13.80;99.90
41344;DHT22;27089;50.022;7.604;2022-07-18T01:04:09;13.80;99.90
41344;DHT22;27089;50.022;7.604;2022-07-18T01:06:37;13.70;99.90
41344;DHT22;27089;50.022;7.604;2022-07-18T01:09:04;13.60;99.90
41344;DHT22;27089;50.022;7.604;2022-07-18T01:11:33;13.50;99.90
41344;DHT22;27089;50.022;7.604;2022-07-18T01:14:01;13.50;99.90
41344;DHT22;27089;50.022;7.604;2022-07-18T01:16:28;13.60;99.90
41344;DHT22;27089;50.022;7.604;2022-07-18T01:18:55;13.60;99.90
41344;DHT22;27089;50.022;7.604;2022-07-18T01:21:24;13.60;99.90
41344;DHT22;27089;50.022;7.604;2022-07-18T01:23:51;13.70;99.90
41344;DHT22;27089;50.022;7.604;2022-07-18T01:26:19;13.60;99.90
41344;DHT22;27089;50.022;7.604;2022-07-18T01:28:46;13.60;99.90
41344;DHT22;27089;50.022;7.604;2022-07-18T01:31:14;13.70;99.90
41344;DHT22;27089;50.022;7.604;2022-07-18T01:33:41;13.60;99.90
41344;DHT22;27089;50.022;7.604;2022-07-18T01:36:08;13.60;99.90
41344;DHT22;27089;50.022;7.604;2022-07-18T01:38:37;13.60;99.90
41344;DHT22;27089;50.022;7.604;2022-07-18T01:41:04;13.70;99.90
41344;DHT22;27089;50.022;7.604;2022-07-18T01:43:32;13.60;99.90
41344;DHT22;27089;50.022;7.604;2022-07-18T01:46:00;13.60;99.90
41344;DHT22;27089;50.022;7.604;2022-07-18T01:48:27;13.60;99.90
41344;DHT22;27089;50.022;7.604;2022-07-18T01:50:54;13.60;99.90
41344;DHT22;27089;50.022;7.604;2022-07-18T01:53:21;13.50;99.90
41344;DHT22;27089;50.022;7.604;2022-07-18T01:55:51;13.40;99.90
41344;DHT22;27089;50.022;7.604;2022-07-18T01:58:18;13.40;99.90
41344;DHT22;27089;50.022;7.604;2022-07-18T02:00:45;13.40;99.90
41344;DHT22;27089;50.022;7.604;2022-07-18T02:03:13;13.40;99.90
41344;DHT22;27089;50.022;7.604;2022-07-18T02:05:40;13.30;99.90
41344;DHT22;27089;50.022;7.604;2022-07-18T02:08:08;13.40;99.90
41344;DHT22;27089;50.022;7.604;2022-07-18T02:10:35;13.30;99.90
41344;DHT22;27089;50.022;7.604;2022-07-18T02:13:04;13.40;99.90
41344;DHT22;27089;50.022;7.604;2022-07-18T02:15:31;13.40;99.90
41344;DHT22;27089;50.022;7.604;2022-07-18T02:17:58;13.30;99.90
41344;DHT22;27089;50.022;7.604;2022-07-18T02:20:25;13.20;99.90
41344;DHT22;27089;50.022;7.604;2022-07-18T02:22:53;13.20;99.90
41344;DHT22;27089;50.022;7.604;2022-07-18T02:25:20;13.20;99.90
41344;DHT22;27089;50.022;7.604;2022-07-18T02:27:47;13.20;99.90
41344;DHT22;27089;50.022;7.604;2022-07-18T02:30:15;13.20;99.90
41344;DHT22;27089;50.022;7.604;2022-07-18T02:32:43;13.30;99.90
41344;DHT22;27089;50.022;7.604;2022-07-18T02:35:10;13.30;99.90
41344;DHT22;27089;50.022;7.604;2022-07-18T02:37:37;13.20;99.90
41344;DHT22;27089;50.022;7.604;2022-07-18T02:40:07;13.30;99.90
41344;DHT22;27089;50.022;7.604;2022-07-18T02:42:35;13.30;99.90
41344;DHT22;27089;50.022;7.604;2022-07-18T02:45:03;13.40;99.90
41344;DHT22;27089;50.022;7.604;2022-07-18T02:47:31;13.40;99.90
41344;DHT22;27089;50.022;7.604;2022-07-18T02:49:58;13.40;99.90
41344;DHT22;27089;50.022;7.604;2022-07-18T02:52:25;13.30;99.90
41344;DHT22;27089;50.022;7.604;2022-07-18T02:54:52;13.40;99.90
41344;DHT22;27089;50.022;7.604;2022-07-18T02:57:22;13.40;99.90
41344;DHT22;27089;50.022;7.604;2022-07-18T02:59:49;13.40;99.90
41344;DHT22;27089;50.022;7.604;2022-07-18T03:02:16;13.40;99.90
41344;DHT22;27089;50.022;7.604;2022-07-18T03:04:44;13.30;99.90
41344;DHT22;27089;50.022;7.604;2022-07-18T03:07:11;13.30;99.90
41344;DHT22;27089;50.022;7.604;2022-07-18T03:09:38;13.30;99.90
41344;DHT22;27089;50.022;7.604;2022-07-18T03:12:05;13.20;99.90
41344;DHT22;27089;50.022;7.604;2022-07-18T03:14:33;13.20;99.90
41344;DHT22;27089;50.022;7.604;2022-07-18T03:17:00;13.10;99.90
41344;DHT22;27089;50.022;7.604;2022-07-18T03:19:27;13.10;99.90
41344;DHT22;27089;50.022;7.604;2022-07-18T03:21:55;12.90;99.90
41344;DHT22;27089;50.022;7.604;2022-07-18T03:24:22;12.90;99.90
41344;DHT22;27089;50.022;7.604;2022-07-18T03:26:49;12.80;99.90
41344;DHT22;27089;50.022;7.604;2022-07-18T03:29:16;12.80;99.90
41344;DHT22;27089;50.022;7.604;2022-07-18T03:31:43;12.80;99.90
41344;DHT22;27089;50.022;7.604;2022-07-18T03:34:10;12.70;99.90
41344;DHT22;27089;50.022;7.604;2022-07-18T03:36:38;12.80;99.90
41344;DHT22;27089;50.022;7.604;2022-07-18T03:39:07;12.80;99.90
41344;DHT22;27089;50.022;7.604;2022-07-18T03:41:34;12.90;99.90
41344;DHT22;27089;50.022;7.604;2022-07-18T03:44:02;12.90;99.90
41344;DHT22;27089;50.022;7.604;2022-07-18T03:46:30;13.00;99.90
41344;DHT22;27089;50.022;7.604;2022-07-18T03:48:57;13.00;99.90
41344;DHT22;27089;50.022;7.604;2022-07-18T03:51:24;12.90;99.90
41344;DHT22;27089;50.022;7.604;2022-07-18T03:53:51;12.90;99.90
41344;DHT22;27089;50.022;7.604;2022-07-18T03:56:20;12.80;99.90
41344;DHT22;27089;50.022;7.604;2022-07-18T03:58:47;12.80;99.90
41344;DHT22;27089;50.022;7.604;2022-07-18T04:01:14;12.80;99.90
41344;DHT22;27089;50.022;7.604;2022-07-18T04:03:41;12.80;99.90
41344;DHT22;27089;50.022;7.604;2022-07-18T04:06:08;12.90;99.90
41344;DHT22;27089;50.022;7.604;2022-07-18T04:08:35;12.80;99.90
41344;DHT22;27089;50.022;7.604;2022-07-18T04:11:02;12.80;99.90
41344;DHT22;27089;50.022;7.604;2022-07-18T04:13:31;12.80;99.90
41344;DHT22;27089;50.022;7.604;2022-07-18T04:15:58;12.70;99.90
41344;DHT22;27089;50.022;7.604;2022-07-18T04:18:25;12.70;99.90
41344;DHT22;27089;50.022;7.604;2022-07-18T04:20:52;12.70;99.90
41344;DHT22;27089;50.022;7.604;2022-07-18T04:23:19;12.70;99.90
41344;DHT22;27089;50.022;7.604;2022-07-18T04:25:46;12.70;99.90
41344;DHT22;27089;50.022;7.604;2022-07-18T04:28:14;12.80;99.90
41344;DHT22;27089;50.022;7.604;2022-07-18T04:30:43;12.80;99.90
41344;DHT22;27089;50.022;7.604;2022-07-18T04:33:11;12.80;99.90
41344;DHT22;27089;50.022;7.604;2022-07-18T04:35:39;12.80;99.90
41344;DHT22;27089;50.022;7.604;2022-07-18T04:38:08;12.70;99.90
41344;DHT22;27089;50.022;7.604;2022-07-18T04:40:36;12.70;99.90
41344;DHT22;27089;50.022;7.604;2022-07-18T04:43:03;12.70;99.90
41344;DHT22;27089;50.022;7.604;2022-07-18T04:45:31;12.80;99.90
41344;DHT22;27089;50.022;7.604;2022-07-18T04:47:59;12.90;99.90
41344;DHT22;27089;50.022;7.604;2022-07-18T04:50:27;13.00;99.90
41344;DHT22;27089;50.022;7.604;2022-07-18T04:52:56;13.10;99.90
41344;DHT22;27089;50.022;7.604;2022-07-18T04:55:24;13.30;99.90
41344;DHT22;27089;50.022;7.604;2022-07-18T04:57:52;13.40;99.90
41344;DHT22;27089;50.022;7.604;2022-07-18T05:00:21;13.50;99.90
41344;DHT22;27089;50.022;7.604;2022-07-18T05:02:49;13.60;99.90
41344;DHT22;27089;50.022;7.604;2022-07-18T05:05:19;13.70;99.90
41344;DHT22;27089;50.022;7.604;2022-07-18T05:07:47;13.80;99.90
41344;DHT22;27089;50.022;7.604;2022-07-18T05:10:17;13.90;99.90
41344;DHT22;27089;50.022;7.604;2022-07-18T05:12:45;14.00;99.90
41344;DHT22;27089;50.022;7.604;2022-07-18T05:15:16;14.10;99.90
41344;DHT22;27089;50.022;7.604;2022-07-18T05:17:44;14.20;99.90
41344;DHT22;27089;50.022;7.604;2022-07-18T05:20:13;14.40;99.90
41344;DHT22;27089;50.022;7.604;2022-07-18T05:22:41;14.50;99.90
41344;DHT22;27089;50.022;7.604;2022-07-18T05:25:09;14.60;99.90
41344;DHT22;27089;50.022;7.604;2022-07-18T05:27:37;14.70;99.90
41344;DHT22;27089;50.022;7.604;2022-07-18T05:30:05;14.70;99.90
41344;DHT22;27089;50.022;7.604;2022-07-18T05:32:33;14.90;99.90
41344;DHT22;27089;50.022;7.604;2022-07-18T05:35:00;15.10;99.90
41344;DHT22;27089;50.022;7.604;2022-07-18T05:37:27;15.30;99.90
41344;DHT22;27089;50.022;7.604;2022-07-18T05:39:55;15.50;99.90
41344;DHT22;27089;50.022;7.604;2022-07-18T05:42:22;15.60;99.90
41344;DHT22;27089;50.022;7.604;2022-07-18T05:44:49;15.80;99.90
41344;DHT22;27089;50.022;7.604;2022-07-18T05:47:16;16.00;99.90
41344;DHT22;27089;50.022;7.604;2022-07-18T05:49:43;16.20;99.90
41344;DHT22;27089;50.022;7.604;2022-07-18T05:52:10;16.30;99.90
41344;DHT22;27089;50.022;7.604;2022-07-18T05:54:37;16.40;99.90
41344;DHT22;27089;50.022;7.604;2022-07-18T05:57:05;16.60;99.90
41344;DHT22;27089;50.022;7.604;2022-07-18T05:59:33;16.70;99.90
41344;DHT22;27089;50.022;7.604;2022-07-18T06:02:00;16.70;99.90
41344;DHT22;27089;50.022;7.604;2022-07-18T06:04:27;16.80;99.90
41344;DHT22;27089;50.022;7.604;2022-07-18T06:06:54;17.00;99.90
41344;DHT22;27089;50.022;7.604;2022-07-18T06:09:21;17.10;99.90
41344;DHT22;27089;50.022;7.604;2022-07-18T06:11:48;17.40;99.90
41344;DHT22;27089;50.022;7.604;2022-07-18T06:14:16;17.70;99.90
41344;DHT22;27089;50.022;7.604;2022-07-18T06:16:43;17.80;99.90
41344;DHT22;27089;50.022;7.604;2022-07-18T06:19:10;17.90;99.90
41344;DHT22;27089;50.022;7.604;2022-07-18T06:21:37;17.90;99.90
41344;DHT22;27089;50.022;7.604;2022-07-18T06:24:05;18.00;99.90
41344;DHT22;27089;50.022;7.604;2022-07-18T06:26:32;18.10;99.90
41344;DHT22;27089;50.022;7.604;2022-07-18T06:28:59;18.20;99.90
41344;DHT22;27089;50.022;7.604;2022-07-18T06:31:27;18.40;99.90
41344;DHT22;27089;50.022;7.604;2022-07-18T06:33:55;18.50;99.90
41344;DHT22;27089;50.022;7.604;2022-07-18T06:36:21;18.60;99.90
41344;DHT22;27089;50.022;7.604;2022-07-18T06:38:49;18.80;99.90
41344;DHT22;27089;50.022;7.604;2022-07-18T06:41:16;18.90;99.90
41344;DHT22;27089;50.022;7.604;2022-07-18T06:43:43;19.10;99.90
41344;DHT22;27089;50.022;7.604;2022-07-18T06:46:11;19.30;99.90
41344;DHT22;27089;50.022;7.604;2022-07-18T06:48:39;19.50;99.90
41344;DHT22;27089;50.022;7.604;2022-07-18T06:51:07;19.80;99.90
41344;DHT22;27089;50.022;7.604;2022-07-18T06:53:34;20.10;99.90
41344;DHT22;27089;50.022;7.604;2022-07-18T06:56:01;20.30;99.90
41344;DHT22;27089;50.022;7.604;2022-07-18T06:58:31;20.60;99.90
41344;DHT22;27089;50.022;7.604;2022-07-18T07:00:59;20.80;99.90
41344;DHT22;27089;50.022;7.604;2022-07-18T07:03:26;20.90;99.90
41344;DHT22;27089;50.022;7.604;2022-07-18T07:05:54;20.90;99.90
41344;DHT22;27089;50.022;7.604;2022-07-18T07:08:21;21.00;99.90
41344;DHT22;27089;50.022;7.604;2022-07-18T07:10:48;21.30;99.90
41344;DHT22;27089;50.022;7.604;2022-07-18T07:13:15;21.50;99.90
41344;DHT22;27089;50.022;7.604;2022-07-18T07:15:42;21.70;99.90
41344;DHT22;27089;50.022;7.604;2022-07-18T07:18:09;21.80;99.90
41344;DHT22;27089;50.022;7.604;2022-07-18T07:20:37;22.00;99.90
41344;DHT22;27089;50.022;7.604;2022-07-18T07:23:05;22.10;99.90
41344;DHT22;27089;50.022;7.604;2022-07-18T07:25:35;22.30;99.90
41344;DHT22;27089;50.022;7.604;2022-07-18T07:28:02;22.40;99.90
41344;DHT22;27089;50.022;7.604;2022-07-18T07:30:30;22.60;99.90
41344;DHT22;27089;50.022;7.604;2022-07-18T07:32:57;22.70;99.90
41344;DHT22;27089;50.022;7.604;2022-07-18T07:35:24;22.70;97.90
41344;DHT22;27089;50.022;7.604;2022-07-18T07:37:52;22.70;97.60
41344;DHT22;27089;50.022;7.604;2022-07-18T07:40:21;22.70;98.00
41344;DHT22;27089;50.022;7.604;2022-07-18T07:42:50;22.80;98.20
41344;DHT22;27089;50.022;7.604;2022-07-18T07:45:18;22.80;97.80
41344;DHT22;27089;50.022;7.604;2022-07-18T07:47:45;22.90;97.90
41344;DHT22;27089;50.022;7.604;2022-07-18T07:50:12;23.00;97.50
41344;DHT22;27089;50.022;7.604;2022-07-18T07:52:39;23.10;97.60
41344;DHT22;27089;50.022;7.604;2022-07-18T07:55:07;23.20;97.00
41344;DHT22;27089;50.022;7.604;2022-07-18T07:57:35;23.30;96.10
41344;DHT22;27089;50.022;7.604;2022-07-18T08:00:04;23.40;96.40
41344;DHT22;27089;50.022;7.604;2022-07-18T08:02:32;23.50;96.20
41344;DHT22;27089;50.022;7.604;2022-07-18T08:04:59;23.60;95.80
41344;DHT22;27089;50.022;7.604;2022-07-18T08:07:26;23.70;94.80
41344;DHT22;27089;50.022;7.604;2022-07-18T08:09:53;23.90;94.50
41344;DHT22;27089;50.022;7.604;2022-07-18T08:12:20;24.10;93.90
41344;DHT22;27089;50.022;7.604;2022-07-18T08:14:48;24.10;94.00
41344;DHT22;27089;50.022;7.604;2022-07-18T08:17:17;24.30;93.60
41344;DHT22;27089;50.022;7.604;2022-07-18T08:19:44;24.40;93.60
41344;DHT22;27089;50.022;7.604;2022-07-18T08:22:11;24.60;93.00
41344;DHT22;27089;50.022;7.604;2022-07-18T08:24:38;24.70;93.30
41344;DHT22;27089;50.022;7.604;2022-07-18T08:27:05;24.80;92.00
41344;DHT22;27089;50.022;7.604;2022-07-18T08:29:32;24.90;91.20
41344;DHT22;27089;50.022;7.604;2022-07-18T08:32:02;25.00;90.90
41344;DHT22;27089;50.022;7.604;2022-07-18T08:34:29;25.10;90.40
41344;DHT22;27089;50.022;7.604;2022-07-18T08:36:57;25.30;88.10
41344;DHT22;27089;50.022;7.604;2022-07-18T08:39:24;25.40;85.50
41344;DHT22;27089;50.022;7.604;2022-07-18T08:41:51;25.60;83.10
41344;DHT22;27089;50.022;7.604;2022-07-18T08:44:18;25.70;82.00
41344;DHT22;27089;50.022;7.604;2022-07-18T08:46:50;26.00;81.00
41344;DHT22;27089;50.022;7.604;2022-07-18T08:49:18;26.20;78.20
41344;DHT22;27089;50.022;7.604;2022-07-18T08:51:45;26.40;75.70
41344;DHT22;27089;50.022;7.604;2022-07-18T08:54:13;26.30;72.00
41344;DHT22;27089;50.022;7.604;2022-07-18T08:56:40;26.40;69.80
41344;DHT22;27089;50.022;7.604;2022-07-18T08:59:07;26.30;69.50
41344;DHT22;27089;50.022;7.604;2022-07-18T09:01:34;26.20;69.90
41344;DHT22;27089;50.022;7.604;2022-07-18T09:04:01;26.30;70.10
41344;DHT22;27089;50.022;7.604;2022-07-18T09:06:48;26.40;62.50
41344;DHT22;27089;50.022;7.604;2022-07-18T09:09:17;26.60;64.80
41344;DHT22;27089;50.022;7.604;2022-07-18T09:11:51;26.70;65.30
41344;DHT22;27089;50.022;7.604;2022-07-18T09:14:35;26.80;64.80
41344;DHT22;27089;50.022;7.604;2022-07-18T09:17:10;26.80;63.20
41344;DHT22;27089;50.022;7.604;2022-07-18T09:19:38;26.70;63.10
41344;DHT22;27089;50.022;7.604;2022-07-18T09:22:19;26.80;64.70
41344;DHT22;27089;50.022;7.604;2022-07-18T09:24:55;27.20;63.70
41344;DHT22;27089;50.022;7.604;2022-07-18T09:27:31;27.50;63.60
41344;DHT22;27089;50.022;7.604;2022-07-18T09:30:23;27.80;60.30
41344;DHT22;27089;50.022;7.604;2022-07-18T09:32:53;28.40;59.90
41344;DHT22;27089;50.022;7.604;2022-07-18T09:35:24;29.00;59.90
41344;DHT22;27089;50.022;7.604;2022-07-18T09:37:56;29.60;57.40
41344;DHT22;27089;50.022;7.604;2022-07-18T09:40:25;30.40;57.20
41344;DHT22;27089;50.022;7.604;2022-07-18T09:42:54;31.00;54.00
41344;DHT22;27089;50.022;7.604;2022-07-18T09:45:24;31.50;53.20
41344;DHT22;27089;50.022;7.604;2022-07-18T09:47:53;32.20;52.00
41344;DHT22;27089;50.022;7.604;2022-07-18T09:50:23;32.60;50.10
41344;DHT22;27089;50.022;7.604;2022-07-18T09:53:04;33.00;49.40
41344;DHT22;27089;50.022;7.604;2022-07-18T09:55:32;33.10;48.60
41344;DHT22;27089;50.022;7.604;2022-07-18T09:58:01;33.10;48.50
41344;DHT22;27089;50.022;7.604;2022-07-18T10:00:30;33.00;48.20
41344;DHT22;27089;50.022;7.604;2022-07-18T10:02:58;33.10;47.60
41344;DHT22;27089;50.022;7.604;2022-07-18T10:05:29;33.20;47.10
41344;DHT22;27089;50.022;7.604;2022-07-18T10:07:58;33.30;47.00
41344;DHT22;27089;50.022;7.604;2022-07-18T10:10:27;33.60;46.90
41344;DHT22;27089;50.022;7.604;2022-07-18T10:12:55;33.80;46.00
41344;DHT22;27089;50.022;7.604;2022-07-18T10:15:23;34.10;46.30
41344;DHT22;27089;50.022;7.604;2022-07-18T10:17:51;34.10;45.10
41344;DHT22;27089;50.022;7.604;2022-07-18T10:20:25;34.00;45.30
41344;DHT22;27089;50.022;7.604;2022-07-18T10:22:55;33.80;44.60
41344;DHT22;27089;50.022;7.604;2022-07-18T10:25:22;33.70;45.20
41344;DHT22;27089;50.022;7.604;2022-07-18T10:27:53;33.90;45.60
41344;DHT22;27089;50.022;7.604;2022-07-18T10:30:38;34.00;45.60
41344;DHT22;27089;50.022;7.604;2022-07-18T10:33:36;33.80;44.50
41344;DHT22;27089;50.022;7.604;2022-07-18T10:36:05;33.40;45.50
41344;DHT22;27089;50.022;7.604;2022-07-18T10:38:32;33.00;46.10
41344;DHT22;27089;50.022;7.604;2022-07-18T10:41:11;32.60;46.10
41344;DHT22;27089;50.022;7.604;2022-07-18T10:43:44;31.90;46.60
41344;DHT22;27089;50.022;7.604;2022-07-18T10:46:12;31.20;46.60
41344;DHT22;27089;50.022;7.604;2022-07-18T10:48:53;30.70;47.80
41344;DHT22;27089;50.022;7.604;2022-07-18T10:51:32;30.30;47.90
41344;DHT22;27089;50.022;7.604;2022-07-18T10:54:10;30.10;48.10
41344;DHT22;27089;50.022;7.604;2022-07-18T10:57:08;29.90;48.50
41344;DHT22;27089;50.022;7.604;2022-07-18T11:00:00;29.60;48.40
41344;DHT22;27089;50.022;7.604;2022-07-18T11:02:32;29.40;49.10
41344;DHT22;27089;50.022;7.604;2022-07-18T11:05:00;29.60;50.50
41344;DHT22;27089;50.022;7.604;2022-07-18T11:07:27;29.50;49.00
41344;DHT22;27089;50.022;7.604;2022-07-18T11:09:54;29.50;49.20
41344;DHT22;27089;50.022;7.604;2022-07-18T11:12:26;29.70;48.70
41344;DHT22;27089;50.022;7.604;2022-07-18T11:15:11;29.80;48.70
41344;DHT22;27089;50.022;7.604;2022-07-18T11:18:04;29.90;49.60
41344;DHT22;27089;50.022;7.604;2022-07-18T11:20:37;29.90;49.10
41344;DHT22;27089;50.022;7.604;2022-07-18T11:23:12;29.90;48.40
41344;DHT22;27089;50.022;7.604;2022-07-18T11:25:40;29.90;49.30
41344;DHT22;27089;50.022;7.604;2022-07-18T11:28:08;29.90;48.10
41344;DHT22;27089;50.022;7.604;2022-07-18T11:30:37;29.90;47.90
41344;DHT22;27089;50.022;7.604;2022-07-18T11:33:05;29.70;47.50
41344;DHT22;27089;50.022;7.604;2022-07-18T11:35:32;29.90;48.30
41344;DHT22;27089;50.022;7.604;2022-07-18T11:38:04;30.00;47.90
41344;DHT22;27089;50.022;7.604;2022-07-18T11:40:31;30.10;47.80
41344;DHT22;27089;50.022;7.604;2022-07-18T11:42:58;30.20;47.30
41344;DHT22;27089;50.022;7.604;2022-07-18T11:45:25;30.20;47.70
41344;DHT22;27089;50.022;7.604;2022-07-18T11:47:54;30.10;48.00
41344;DHT22;27089;50.022;7.604;2022-07-18T11:50:35;30.10;47.90
41344;DHT22;27089;50.022;7.604;2022-07-18T11:53:02;30.00;47.10
41344;DHT22;27089;50.022;7.604;2022-07-18T11:55:33;30.10;48.50
41344;DHT22;27089;50.022;7.604;2022-07-18T11:58:11;30.20;46.90
41344;DHT22;27089;50.022;7.604;2022-07-18T12:00:38;30.20;47.10
41344;DHT22;27089;50.022;7.604;2022-07-18T12:03:12;30.30;46.90
41344;DHT22;27089;50.022;7.604;2022-07-18T12:05:40;30.20;46.50
41344;DHT22;27089;50.022;7.604;2022-07-18T12:08:31;30.10;46.70
41344;DHT22;27089;50.022;7.604;2022-07-18T12:11:25;30.30;47.10
41344;DHT22;27089;50.022;7.604;2022-07-18T12:13:54;30.40;47.20
41344;DHT22;27089;50.022;7.604;2022-07-18T12:16:40;30.50;46.60
41344;DHT22;27089;50.022;7.604;2022-07-18T12:19:10;30.50;46.50
41344;DHT22;27089;50.022;7.604;2022-07-18T12:21:49;30.50;47.30
41344;DHT22;27089;50.022;7.604;2022-07-18T12:24:28;30.60;46.20
41344;DHT22;27089;50.022;7.604;2022-07-18T12:27:13;30.70;46.50
41344;DHT22;27089;50.022;7.604;2022-07-18T12:30:02;30.80;47.60
41344;DHT22;27089;50.022;7.604;2022-07-18T12:32:37;30.70;46.70
41344;DHT22;27089;50.022;7.604;2022-07-18T12:35:08;30.60;45.60
41344;DHT22;27089;50.022;7.604;2022-07-18T12:37:35;30.60;46.20
41344;DHT22;27089;50.022;7.604;2022-07-18T12:40:04;30.60;46.90
41344;DHT22;27089;50.022;7.604;2022-07-18T12:42:33;30.70;46.40
41344;DHT22;27089;50.022;7.604;2022-07-18T12:45:01;30.60;46.00
41344;DHT22;27089;50.022;7.604;2022-07-18T12:47:29;30.70;46.60
41344;DHT22;27089;50.022;7.604;2022-07-18T12:49:56;30.80;46.50
41344;DHT22;27089;50.022;7.604;2022-07-18T12:52:25;31.00;46.20
41344;DHT22;27089;50.022;7.604;2022-07-18T12:54:52;31.00;45.70
41344;DHT22;27089;50.022;7.604;2022-07-18T12:57:19;30.90;46.40
41344;DHT22;27089;50.022;7.604;2022-07-18T12:59:46;30.90;45.40
41344;DHT22;27089;50.022;7.604;2022-07-18T13:02:14;30.80;46.20
41344;DHT22;27089;50.022;7.604;2022-07-18T13:04:42;30.70;46.40
41344;DHT22;27089;50.022;7.604;2022-07-18T13:07:09;30.70;45.70
41344;DHT22;27089;50.022;7.604;2022-07-18T13:09:38;30.80;46.10
41344;DHT22;27089;50.022;7.604;2022-07-18T13:12:05;30.90;46.20
41344;DHT22;27089;50.022;7.604;2022-07-18T13:14:33;30.90;45.60
41344;DHT22;27089;50.022;7.604;2022-07-18T13:17:01;31.00;46.20
41344;DHT22;27089;50.022;7.604;2022-07-18T13:19:28;30.90;46.10
41344;DHT22;27089;50.022;7.604;2022-07-18T13:21:57;30.90;46.70
41344;DHT22;27089;50.022;7.604;2022-07-18T13:24:24;30.90;46.50
41344;DHT22;27089;50.022;7.604;2022-07-18T13:26:53;31.00;47.10
41344;DHT22;27089;50.022;7.604;2022-07-18T13:29:21;31.20;46.50
41344;DHT22;27089;50.022;7.604;2022-07-18T13:31:48;31.20;46.50
41344;DHT22;27089;50.022;7.604;2022-07-18T13:34:18;31.20;46.60
41344;DHT22;27089;50.022;7.604;2022-07-18T13:36:48;31.30;46.80
41344;DHT22;27089;50.022;7.604;2022-07-18T13:39:16;31.20;45.90
41344;DHT22;27089;50.022;7.604;2022-07-18T13:41:44;31.10;45.90
41344;DHT22;27089;50.022;7.604;2022-07-18T13:44:12;31.10;46.10
41344;DHT22;27089;50.022;7.604;2022-07-18T13:46:40;31.30;46.60
41344;DHT22;27089;50.022;7.604;2022-07-18T13:49:08;31.40;47.60
41344;DHT22;27089;50.022;7.604;2022-07-18T13:51:37;31.50;46.60
41344;DHT22;27089;50.022;7.604;2022-07-18T13:54:04;31.50;46.40
41344;DHT22;27089;50.022;7.604;2022-07-18T13:56:32;31.60;46.70
41344;DHT22;27089;50.022;7.604;2022-07-18T13:58:59;31.40;46.40
41344;DHT22;27089;50.022;7.604;2022-07-18T14:01:27;31.40;47.00
41344;DHT22;27089;50.022;7.604;2022-07-18T14:03:54;31.40;45.90
41344;DHT22;27089;50.022;7.604;2022-07-18T14:06:21;31.40;46.10
41344;DHT22;27089;50.022;7.604;2022-07-18T14:08:48;31.40;47.10
41344;DHT22;27089;50.022;7.604;2022-07-18T14:11:15;31.50;46.80
41344;DHT22;27089;50.022;7.604;2022-07-18T14:13:42;31.60;46.30
41344;DHT22;27089;50.022;7.604;2022-07-18T14:16:09;31.70;46.70
41344;DHT22;27089;50.022;7.604;2022-07-18T14:18:38;31.80;46.50
41344;DHT22;27089;50.022;7.604;2022-07-18T14:21:05;32.00;46.90
41344;DHT22;27089;50.022;7.604;2022-07-18T14:23:32;32.10;46.60
41344;DHT22;27089;50.022;7.604;2022-07-18T14:25:59;32.10;45.90
41344;DHT22;27089;50.022;7.604;2022-07-18T14:28:26;32.10;46.50
41344;DHT22;27089;50.022;7.604;2022-07-18T14:30:53;32.20;45.70
41344;DHT22;27089;50.022;7.604;2022-07-18T14:33:20;32.20;45.80
41344;DHT22;27089;50.022;7.604;2022-07-18T14:35:48;32.20;45.90
41344;DHT22;27089;50.022;7.604;2022-07-18T14:38:15;32.40;46.40
41344;DHT22;27089;50.022;7.604;2022-07-18T14:40:42;32.50;44.70
41344;DHT22;27089;50.022;7.604;2022-07-18T14:43:09;32.60;44.90
41344;DHT22;27089;50.022;7.604;2022-07-18T14:45:36;32.70;45.30
41344;DHT22;27089;50.022;7.604;2022-07-18T14:48:04;32.40;45.70
41344;DHT22;27089;50.022;7.604;2022-07-18T14:50:31;32.30;46.80
41344;DHT22;27089;50.022;7.604;2022-07-18T14:52:59;32.30;46.20
41344;DHT22;27089;50.022;7.604;2022-07-18T14:55:26;32.40;46.20
41344;DHT22;27089;50.022;7.604;2022-07-18T14:57:53;32.40;44.40
41344;DHT22;27089;50.022;7.604;2022-07-18T15:00:20;32.50;43.80
41344;DHT22;27089;50.022;7.604;2022-07-18T15:02:47;32.50;44.30
41344;DHT22;27089;50.022;7.604;2022-07-18T15:05:14;32.50;43.50
41344;DHT22;27089;50.022;7.604;2022-07-18T15:07:42;32.60;44.20
41344;DHT22;27089;50.022;7.604;2022-07-18T15:10:10;32.60;44.10
41344;DHT22;27089;50.022;7.604;2022-07-18T15:12:37;32.80;45.80
41344;DHT22;27089;50.022;7.604;2022-07-18T15:15:06;32.70;45.40
41344;DHT22;27089;50.022;7.604;2022-07-18T15:17:33;32.70;46.10
41344;DHT22;27089;50.022;7.604;2022-07-18T15:20:00;32.50;46.00
41344;DHT22;27089;50.022;7.604;2022-07-18T15:22:27;32.30;45.50
41344;DHT22;27089;50.022;7.604;2022-07-18T15:24:55;32.20;46.00
41344;DHT22;27089;50.022;7.604;2022-07-18T15:27:23;32.10;46.30
41344;DHT22;27089;50.022;7.604;2022-07-18T15:29:50;32.10;46.00
41344;DHT22;27089;50.022;7.604;2022-07-18T15:32:17;32.10;46.40
41344;DHT22;27089;50.022;7.604;2022-07-18T15:34:44;32.10;46.20
41344;DHT22;27089;50.022;7.604;2022-07-18T15:37:11;32.20;46.00
41344;DHT22;27089;50.022;7.604;2022-07-18T15:39:38;32.10;45.90
41344;DHT22;27089;50.022;7.604;2022-07-18T15:42:05;32.10;46.40